createdAt,value
2023-04-22T00:00:29.037Z,100980.63
2023-04-22T00:05:31.613Z,100992.78
2023-04-22T00:10:33.920Z,100990.38
2023-04-22T00:15:36.096Z,100996.78
2023-04-22T00:20:39.362Z,101006.41
2023-04-22T00:25:41.627Z,101007.00
2023-04-22T00:30:43.849Z,101010.03
2023-04-22T00:35:49.021Z,101010.94
2023-04-22T00:40:51.504Z,101005.19
2023-04-22T00:45:53.893Z,101008.53
2023-04-22T00:50:56.253Z,101003.34
2023-04-22T00:55:59.134Z,101011.41
2023-04-22T01:05:13.735Z,101011.28
2023-04-22T01:10:15.947Z,101012.16
2023-04-22T01:15:18.100Z,101011.09
2023-04-22T01:20:21.596Z,101019.34
2023-04-22T01:25:26.071Z,101003.44
2023-04-22T01:30:28.290Z,100999.06
2023-04-22T01:35:36.723Z,101000.19
2023-04-22T01:40:39.692Z,101006.78
2023-04-22T01:45:42.763Z,101009.00
2023-04-22T01:50:47.228Z,101004.63
2023-04-22T01:55:49.869Z,100999.94
2023-04-22T02:00:53.212Z,100997.50
2023-04-22T02:05:55.050Z,101001.91
2023-04-22T02:10:58.438Z,101010.16
2023-04-22T02:16:00.475Z,101006.59
2023-04-22T02:21:03.723Z,101015.13
2023-04-22T02:26:06.087Z,101018.16
2023-04-22T02:31:08.741Z,101021.47
2023-04-22T02:36:11.468Z,101025.88
2023-04-22T02:41:13.807Z,101023.44
2023-04-22T02:46:17.300Z,101021.25
2023-04-22T02:51:19.444Z,101021.31
2023-04-22T02:56:21.598Z,101035.34
2023-04-22T03:01:23.715Z,101039.50
2023-04-22T03:06:26.521Z,101028.53
2023-04-22T03:11:28.561Z,101043.34
2023-04-22T03:16:30.610Z,101039.50
2023-04-22T03:21:37.909Z,101043.88
2023-04-22T03:26:40.536Z,101046.03
2023-04-22T03:31:42.979Z,101038.91
2023-04-22T03:36:45.537Z,101039.44
2023-04-22T03:41:48.227Z,101036.94
2023-04-22T03:46:51.033Z,101038.59
2023-04-22T03:51:58.086Z,101035.56
2023-04-22T03:57:00.856Z,101033.91
2023-04-22T04:07:47.663Z,101039.97
2023-04-22T04:12:49.856Z,101029.00
2023-04-22T04:17:52.106Z,101030.41
2023-04-22T04:22:55.552Z,101024.66
2023-04-22T04:27:57.788Z,101023.03
2023-04-22T04:32:59.956Z,101019.75
2023-04-22T04:38:02.371Z,101017.00
2023-04-22T04:43:08.580Z,101020.34
2023-04-22T04:48:20.258Z,101016.53
2023-04-22T04:53:27.719Z,101012.72
2023-04-22T04:58:31.171Z,101013.28
2023-04-22T05:03:44.674Z,101023.78
2023-04-22T05:08:50.310Z,101028.19
2023-04-22T05:13:54.020Z,101016.16
2023-04-22T05:19:04.936Z,101019.75
2023-04-22T05:24:08.604Z,101015.66
2023-04-22T05:29:10.926Z,101021.13
2023-04-22T05:34:13.904Z,101026.91
2023-04-22T05:39:16.383Z,101024.44
2023-04-22T05:44:18.927Z,101033.22
2023-04-22T05:49:20.910Z,101026.91
2023-04-22T05:54:41.444Z,101034.81
2023-04-22T05:59:44.300Z,101031.50
2023-04-22T06:04:46.512Z,101036.69
2023-04-22T06:09:49.239Z,101043.78
2023-04-22T06:14:51.452Z,101044.56
2023-04-22T06:19:53.477Z,101045.06
2023-04-22T06:24:57.186Z,101043.06
2023-04-22T06:29:59.126Z,101052.31
2023-04-22T06:35:01.119Z,101052.75
2023-04-22T06:40:03.335Z,101040.63
2023-04-22T06:45:25.454Z,101055.59
2023-04-22T06:50:46.139Z,101056.72
2023-04-22T06:55:48.384Z,101056.09
2023-04-22T07:00:50.698Z,101047.50
2023-04-22T07:05:53.435Z,101044.25
2023-04-22T07:10:57.870Z,101060.25
2023-04-22T07:16:10.157Z,101062.41
2023-04-22T07:21:12.245Z,101056.44
2023-04-22T07:26:14.512Z,101056.78
2023-04-22T07:31:16.679Z,101060.56
2023-04-22T07:36:18.772Z,101055.66
2023-04-22T07:41:21.048Z,101049.91
2023-04-22T07:46:23.631Z,101048.72
2023-04-22T07:51:26.100Z,101047.41
2023-04-22T07:56:28.114Z,101055.94
2023-04-22T08:01:30.236Z,101048.69
2023-04-22T08:06:32.615Z,101046.16
2023-04-22T08:11:34.704Z,101046.53
2023-04-22T08:16:38.265Z,101043.97
2023-04-22T08:21:40.387Z,101048.50
2023-04-22T08:26:42.568Z,101053.94
2023-04-22T08:31:44.610Z,101055.66
2023-04-22T08:36:47.090Z,101050.13
2023-04-22T08:41:50.396Z,101051.63
2023-04-22T08:46:53.558Z,101051.81
2023-04-22T08:51:56.335Z,101050.50
2023-04-22T08:57:00.165Z,101049.59
2023-04-22T09:02:02.864Z,101049.59
2023-04-22T09:07:05.057Z,101042.75
2023-04-22T09:12:07.796Z,101049.59
2023-04-22T09:17:09.844Z,101043.09
2023-04-22T09:22:14.915Z,101044.06
2023-04-22T09:27:18.373Z,101053.00
2023-04-22T09:32:20.664Z,101046.50
2023-04-22T09:37:33.056Z,101042.28
2023-04-22T09:42:51.930Z,101045.69
2023-04-22T09:47:56.857Z,101044.91
2023-04-22T09:53:10.101Z,101049.75
2023-04-22T09:58:14.481Z,101043.25
2023-04-22T10:03:16.864Z,101049.94
2023-04-22T10:08:19.011Z,101044.72
2023-04-22T10:13:21.262Z,101051.09
2023-04-22T10:18:26.124Z,101053.00
2023-04-22T10:23:32.961Z,101054.66
2023-04-22T10:28:35.079Z,101058.69
2023-04-22T10:33:39.594Z,101049.53
2023-04-22T10:39:01.665Z,101045.81
2023-04-22T10:44:08.033Z,101047.09
2023-04-22T10:49:18.273Z,101047.91
2023-04-22T10:54:31.745Z,101048.28
2023-04-22T10:59:41.931Z,101060.16
2023-04-22T11:04:44.113Z,101045.53
2023-04-22T11:09:51.118Z,101048.94
2023-04-22T11:14:53.907Z,101043.09
2023-04-22T11:19:57.950Z,101047.47
2023-04-22T11:25:01.269Z,101032.50
2023-04-22T11:30:08.368Z,101020.44
2023-04-22T11:35:16.275Z,101031.53
2023-04-22T11:40:30.680Z,101031.66
2023-04-22T11:45:35.367Z,101040.09
2023-04-22T11:50:39.993Z,101029.97
2023-04-22T11:55:42.654Z,101025.88
2023-04-22T12:00:45.763Z,101037.13
2023-04-22T12:05:55.822Z,101027.56
2023-04-22T12:10:59.986Z,101030.16
2023-04-22T12:16:10.405Z,101023.50
2023-04-22T12:21:14.136Z,101024.78
2023-04-22T12:26:17.758Z,101029.81
2023-04-22T12:31:20.492Z,101027.41
2023-04-22T12:36:23.026Z,101030.31
2023-04-22T12:41:25.364Z,101038.44
2023-04-22T12:46:27.541Z,101034.53
2023-04-22T12:51:29.592Z,101028.81
2023-04-22T12:56:31.838Z,101027.50
2023-04-22T13:01:35.738Z,101019.50
2023-04-22T13:06:38.616Z,101013.44
2023-04-22T13:11:40.651Z,101008.38
2023-04-22T13:16:42.852Z,100994.88
2023-04-22T13:21:45.173Z,101006.28
2023-04-22T13:26:47.455Z,100991.34
2023-04-22T13:31:49.673Z,100980.97
2023-04-22T13:36:51.836Z,100986.22
2023-04-22T13:41:54.115Z,100991.25
2023-04-22T13:46:56.621Z,100994.84
2023-04-22T13:51:58.872Z,100985.41
2023-04-22T13:57:01.005Z,100995.66
2023-04-22T14:02:03.238Z,100984.13
2023-04-22T14:07:05.575Z,100990.66
2023-04-22T14:12:08.658Z,100970.81
2023-04-22T14:17:11.483Z,100966.88
2023-04-22T14:22:13.600Z,100976.00
2023-04-22T14:27:15.584Z,100962.31
2023-04-22T14:32:18.708Z,100961.84
2023-04-22T14:37:21.891Z,100949.97
2023-04-22T14:42:25.825Z,100947.19
2023-04-22T14:47:28.035Z,100939.84
2023-04-22T14:52:31.639Z,100930.03
2023-04-22T14:57:33.925Z,100926.13
2023-04-22T15:02:36.565Z,100930.00
2023-04-22T15:07:38.844Z,100907.34
2023-04-22T15:12:40.902Z,100898.06
2023-04-22T15:17:43.860Z,100891.25
2023-04-22T15:22:46.000Z,100880.84
2023-04-22T15:27:48.722Z,100907.28
2023-04-22T15:32:50.976Z,100909.19
2023-04-22T15:37:54.241Z,100915.34
2023-04-22T15:42:56.299Z,100924.47
2023-04-22T15:47:58.506Z,100937.81
2023-04-22T15:53:00.701Z,100931.16
2023-04-22T15:58:02.816Z,100921.75
2023-04-22T16:03:05.922Z,100933.09
2023-04-22T16:08:08.134Z,100930.81
2023-04-22T16:13:11.124Z,100936.28
2023-04-22T16:18:13.830Z,100935.34
2023-04-22T16:25:16.385Z,100937.59
2023-04-22T16:30:18.466Z,100935.72
2023-04-22T16:35:20.627Z,100937.63
2023-04-22T16:40:22.615Z,100939.47
2023-04-22T16:45:24.644Z,100924.41
2023-04-22T16:50:26.646Z,100930.78
2023-04-22T16:55:29.601Z,100959.69
2023-04-22T17:00:31.747Z,100946.53
2023-04-22T17:05:33.746Z,100957.56
2023-04-22T17:10:37.358Z,100952.91
2023-04-22T17:15:39.913Z,100944.97
2023-04-22T17:20:42.034Z,100948.47
2023-04-22T17:25:46.952Z,100947.56
2023-04-22T17:30:49.031Z,100952.06
2023-04-22T17:35:51.184Z,100942.09
2023-04-22T17:40:53.420Z,100955.75
2023-04-22T17:45:55.630Z,100938.81
2023-04-22T17:51:01.529Z,100939.44
2023-04-22T17:56:03.624Z,100942.19
2023-04-22T18:01:06.906Z,100956.06
2023-04-22T18:06:09.451Z,100973.81
2023-04-22T18:11:11.725Z,100980.56
2023-04-22T18:16:13.938Z,100979.31
2023-04-22T18:21:16.212Z,100981.56
2023-04-22T18:26:18.415Z,100991.97
2023-04-22T18:31:21.099Z,101000.34
2023-04-22T18:36:23.281Z,100996.06
2023-04-22T18:41:28.334Z,100997.28
2023-04-22T18:46:30.623Z,101010.84
2023-04-22T18:51:33.313Z,101010.09
2023-04-22T18:56:35.607Z,101014.28
2023-04-22T19:01:37.978Z,101008.84
2023-04-22T19:06:40.385Z,101010.34
2023-04-22T19:11:42.483Z,101022.47
2023-04-22T19:16:44.637Z,101029.63
2023-04-22T19:21:47.171Z,101029.63
2023-04-22T19:26:49.421Z,101042.88
2023-04-22T19:31:51.695Z,101040.72
2023-04-22T19:36:54.484Z,101039.38
2023-04-22T19:41:58.248Z,101052.94
2023-04-22T19:47:01.542Z,101060.66
2023-04-22T19:52:04.456Z,101059.03
2023-04-22T19:57:07.706Z,101057.72
2023-04-22T20:02:10.381Z,101065.66
2023-04-22T20:07:14.276Z,101055.16
2023-04-22T20:12:16.639Z,101053.97
2023-04-22T20:17:18.985Z,101049.19
2023-04-22T20:22:24.655Z,101054.91
2023-04-22T20:27:26.784Z,101050.44
2023-04-22T20:32:29.834Z,101035.56
2023-04-22T20:37:32.530Z,101033.31
2023-04-22T20:42:36.812Z,101046.81
2023-04-22T20:47:38.897Z,101044.56
2023-04-22T20:52:41.338Z,101039.88
2023-04-22T20:57:43.514Z,101029.06
2023-04-22T21:02:47.172Z,101047.22
2023-04-22T21:07:52.493Z,101037.03
2023-04-22T21:12:55.120Z,101048.88
2023-04-22T21:17:58.041Z,101041.72
2023-04-22T21:23:02.023Z,101049.69
2023-04-22T21:28:04.428Z,101048.03
2023-04-22T21:33:06.434Z,101038.66
2023-04-22T21:38:09.102Z,101049.69
2023-04-22T21:43:11.419Z,101051.31
2023-04-22T21:48:13.481Z,101053.75
2023-04-22T21:53:19.493Z,101042.75
2023-04-22T21:58:22.319Z,101060.91
2023-04-22T22:03:24.564Z,101071.91
2023-04-22T22:08:27.294Z,101086.50
2023-04-22T22:13:29.562Z,101087.41
2023-04-22T22:18:31.896Z,101091.06
2023-04-22T22:23:34.234Z,101095.25
2023-04-22T22:28:42.907Z,101102.13
2023-04-22T22:33:45.137Z,101100.19
2023-04-22T22:38:50.561Z,101104.88
2023-04-22T22:43:53.436Z,101106.56
2023-04-22T22:48:55.855Z,101111.47
2023-04-22T22:53:58.808Z,101112.28
2023-04-22T22:59:01.176Z,101118.59
2023-04-22T23:04:04.487Z,101113.69
2023-04-22T23:09:08.136Z,101106.09
2023-04-22T23:14:10.158Z,101107.50
2023-04-22T23:19:17.158Z,101108.94
2023-04-22T23:24:20.706Z,101116.06
2023-04-22T23:29:23.517Z,101121.56
2023-04-22T23:34:26.491Z,101133.69
2023-04-22T23:39:28.580Z,101133.19
2023-04-22T23:44:30.697Z,101135.13
2023-04-22T23:49:32.890Z,101151.31
2023-04-22T23:54:35.463Z,101140.31
2023-04-22T23:59:38.076Z,101138.16
